Tiempo atmosférico en la estación meteorológica de Alcuescar, Cáceres (460 m.)

Fecha
DESCASC
Temp. máxima en grados centígrados (hora)
DESCASC
Temp. mínima en grados centígrados (hora)
DESCASC
Temp. media en grados centígrados
DESCASC
Racha de viento máxima en m/sg (hora)
DESCASC
Velocidad máxima media en intervalos de 10 minutos(hora)
DESCASC
Precipitaciones diarias en mm
DESCASC
Precipitaciones de 00:00 a 06:00 en mm
DESCASC
Precipitaciones de 06:00 a 12:00 en mm
DESCASC
Precipitaciones de 12:00 a 18:00 en mm
DESCASC
Precipitaciones de 18:00 a 24:00 en mm
DESCASC
17-08-2017 38 (19:20) 18.7 (07:20) 28.4 6.39 (18:50) 3.33 (17:40) 0 0 0 0 0
16-08-2017 35.1 (18:20) 16.1 (07:50) 25.6 8.33 (15:20) 4.72 (15:40) 0 0 0 0 0
15-08-2017 35.5 (17:20) 18.8 (00:00) 27.1 10.83 (17:40) 5.56 (19:30) 0 0 0 0 0
14-08-2017 36.8 (17:00) 20.1 (07:30) 28.4 9.72 (14:50) 4.17 (14:20) 0 0 0 0 0
13-08-2017 37 (17:30) 21.6 (00:00) 29.3 7.5 (17:40) 4.72 (07:50) 0 0 0 0 0
12-08-2017 36 (16:00) 17.5 (00:00) 26.8 8.06 (12:50) 4.72 (11:30) 0 0 0 0 0
11-08-2017 33.2 (17:40) 14.6 (00:00) 23.9 9.17 (10:30) 6.11 (10:30) 0 0 0 0 0
10-08-2017 31 (18:20) 15.5 (00:00) 23.3 7.5 (18:50) 4.17 (00:10) 0 0 0 0 0
09-08-2017 29.9 (17:10) 13.9 (00:00) 21.9 11.39 (17:30) 6.39 (19:50) 0 0 0 0 0
08-08-2017 30.4 (18:10) 13.3 (00:00) 21.8 10 (16:20) 5.83 (00:40) 0 0 0 0 0
07-08-2017 34.5 (16:50) 19 (00:00) 26.8 10.83 (19:00) 6.94 (18:30) 0 0 0 0 0
06-08-2017 36.1 (16:40) 17.2 (00:00) 26.6 8.06 (19:10) 4.72 (17:40) 0 0 0 0 0
05-08-2017 38.6 (17:00) 21.5 (00:00) 30 10.56 (16:40) 5.83 (18:00) 0 0 0 0 0
04-08-2017 39.9 (18:40) 20.4 (00:00) 30.2 7.5 (16:50) 4.44 (19:00) 0 0 0 0 0
03-08-2017 37.1 (18:10) 17.2 (00:00) 27.1 8.33 (19:20) 4.72 (23:20) 0 0 0 0 0
02-08-2017 34.4 (18:00) 15.4 (00:00) 24.9 7.78 (16:50) 4.72 (16:50) 0 0 0 0 0
01-08-2017 31.8 (18:00) 16.1 (00:00) 23.9 7.5 (17:10) 4.72 (17:10) 0 0 0 0 0
31-07-2017 31.8 (17:20) 14.5 (00:00) 23.1 12.78 (20:30) 7.5 (19:50) 0 0 0 0 0
30-07-2017 36.5 (17:20) 18.2 (00:00) 27.4 9.44 (16:20) 5.56 (20:10) 0 0 0 0 0
29-07-2017 37.9 (18:20) 20.1 (00:00) 29 8.61 (19:20) 5.28 (19:40) 0 0 0 0 0
28-07-2017 38.1 (18:30) 18.5 (00:00) 28.3 10 (18:30) 5.56 (20:50) 0 0 0 0 0
27-07-2017 36.9 (16:50) 20.9 (00:00) 28.9 8.61 (16:40) 5 (16:50) 0 0 0 0 0
26-07-2017 37.1 (17:10) 18.7 (00:00) 27.9 7.5 (12:50) 4.44 (11:10) 0 0 0 0 0
25-07-2017 35.3 (17:10) 17.4 (00:00) 26.3 9.17 (14:00) 5 (18:00) 0 0 0 0 0
24-07-2017 34.9 (18:30) 18.4 (00:00) 26.7 10 (12:20) 5.83 (15:00) 0 0 0 0 0
23-07-2017 35.2 (18:00) 16.3 (00:00) 25.8 8.89 (18:10) 4.72 (18:10) 0 0 0 0 0
22-07-2017 32.6 (18:00) 15.1 (00:00) 23.8 7.5 (18:20) 4.44 (19:50) 0 0 0 0 0

Gráficas

Temp. máximas Temp. mínimas Temp. medias Precipitaciones Rachas de viento máximas Velocidades máximas media en intervalos de 10 minutos

Datos horarios

Fecha y hora oficial Temperatura (ºC) Velocidad del viento (km/h) Dirección del viento Racha (km/h) Dirección de racha Precipitación (mm) Presión (hPa) Tendencia (hPa) Humedad (%)
2017-08-20 23:00:00 32.3 8 Nordeste 10 Nordeste 0 -- -- 20
2017-08-20 22:00:00 34.2 7 Sudeste 9 Sudeste 0 -- -- 16
2017-08-20 21:00:00 36.4 7 Sudeste 16 Sur 0 -- -- 14
2017-08-20 20:00:00 38.4 7 Sudeste 16 Sudoeste 0 -- -- 13
2017-08-20 19:00:00 39.2 7 Sudeste 22 Sudeste 0 -- -- 11
2017-08-20 18:00:00 39.5 10 Sur 24 Sudeste 0 -- -- 14
2017-08-20 17:00:00 39.5 13 Sudeste 26 Sur 0 -- -- 16
2017-08-20 16:00:00 38.7 11 Sudeste 24 Sur 0 -- -- 18
2017-08-20 15:00:00 37.7 14 Sudeste 28 Sur 0 -- -- 20
2017-08-20 14:00:00 35.9 17 Sudeste 32 Sudeste 0 -- -- 23
2017-08-20 13:00:00 34.8 21 Sudeste 36 Sur 0 -- -- 26
2017-08-20 12:00:00 33 26 Sudeste 40 Sur 0 -- -- 26
2017-08-20 11:00:00 30.9 27 Sudeste 39 Sudeste 0 -- -- 26
2017-08-20 10:00:00 29 18 Sur 25 Sur 0 -- -- 28
2017-08-20 09:00:00 23.4 3 Noroeste 8 Noroeste 0 -- -- 39
2017-08-20 08:00:00 21.8 6 Noroeste 8 Norte 0 -- -- 42
2017-08-20 07:00:00 22 7 Noroeste 9 Noroeste 0 -- -- 41
2017-08-20 06:00:00 22.4 6 Noroeste 8 Noroeste 0 -- -- 38
2017-08-20 05:00:00 22.8 8 Noroeste 12 Noroeste 0 -- -- 39
2017-08-20 04:00:00 23.5 10 Noroeste 11 Noroeste 0 -- -- 36
2017-08-20 03:00:00 24.9 8 Noroeste 10 Noroeste 0 -- -- 30
2017-08-20 02:00:00 25.8 8 Noroeste 9 Noroeste 0 -- -- 31
2017-08-20 01:00:00 26.7 6 Noroeste 8 Noroeste 0 -- -- 26
2017-08-20 00:00:00 27.9 8 Noroeste 9 Noroeste 0 -- -- 24
2017-08-19 23:00:00 29 4 Norte 10 Nordeste 0 -- -- 25
2017-08-19 22:00:00 31.3 8 Norte 14 Norte 0 -- -- 22
2017-08-19 21:00:00 34.6 10 Norte 19 Norte 0 -- -- 19
2017-08-19 20:00:00 36.8 10 Norte 20 Norte 0 -- -- 17
2017-08-19 19:00:00 37.7 7 Noroeste 25 Norte 0 -- -- 15
2017-08-19 18:00:00 37.5 11 Norte 22 Norte 0 -- -- 16
2017-08-19 17:00:00 37.6 9 Noroeste 26 Norte 0 -- -- 17
2017-08-19 16:00:00 37.1 9 Noroeste 23 Noroeste 0 -- -- 17
2017-08-19 15:00:00 36.1 9 Noroeste 16 Noroeste 0 -- -- 18
2017-08-19 14:00:00 34.4 8 Noroeste 18 Noroeste 0 -- -- 20
2017-08-19 13:00:00 32.7 9 Noroeste 18 Noroeste 0 -- -- 25
2017-08-19 12:00:00 30.3 8 Norte 15 Norte 0 -- -- 31
2017-08-19 11:00:00 27.2 9 Norte 17 Noroeste 0 -- -- 37
2017-08-19 10:00:00 23.8 10 Noroeste 15 Noroeste 0 -- -- 53
2017-08-19 09:00:00 21.1 3 Noroeste 10 Norte 0 -- -- 65
2017-08-19 08:00:00 19.4 9 Noroeste 13 Noroeste 0 -- -- 72
2017-08-19 07:00:00 20.4 10 Norte 13 Norte 0 -- -- 69
2017-08-19 06:00:00 21 7 Noroeste 11 Noroeste 0 -- -- 64
2017-08-19 05:00:00 21.4 6 Noroeste 13 Noroeste 0 -- -- 60
2017-08-19 04:00:00 22.3 7 Noroeste 14 Norte 0 -- -- 55
2017-08-19 03:00:00 23.6 10 Norte 16 Norte 0 -- -- 50
2017-08-19 02:00:00 24.7 11 Norte 15 Norte 0 -- -- 44
2017-08-19 01:00:00 25.8 8 Norte 19 Noroeste 0 -- -- 38
2017-08-19 00:00:00 27.8 12 Norte 23 Norte 0 -- -- 29
2017-08-18 23:00:00 28.6 11 Noroeste 18 Noroeste 0 -- -- 19
2017-08-18 22:00:00 30.9 4 Noroeste 10 Norte 0 -- -- 17
2017-08-18 21:00:00 34.2 8 Norte 26 Norte 0 -- -- 16
2017-08-18 20:00:00 36.3 12 Noroeste 25 Norte 0 -- -- 15
2017-08-18 19:00:00 37.1 16 Norte 27 Norte 0 -- -- 15
2017-08-18 18:00:00 37.3 13 Norte 32 Norte 0 -- -- 16
2017-08-18 17:00:00 37.2 13 Norte 31 Noroeste 0 -- -- 16
2017-08-18 16:00:00 37.1 17 Noroeste 33 Noroeste 0 -- -- 17
2017-08-18 15:00:00 36.3 13 Norte 27 Noroeste 0 -- -- 20
2017-08-18 14:00:00 35.4 12 Norte 22 Noroeste 0 -- -- 20
2017-08-18 13:00:00 34.5 5 Oeste 15 Sur 0 -- -- 23
2017-08-18 12:00:00 33.2 5 Sur 14 Sur 0 -- -- 25
2017-08-18 11:00:00 28.7 4 Noroeste 11 Noroeste 0 -- -- 32
2017-08-18 10:00:00 24.4 8 Noroeste 13 Noroeste 0 -- -- 41
2017-08-18 09:00:00 22.1 7 Noroeste 12 Noroeste 0 -- -- 48
2017-08-18 08:00:00 20.5 6 Noroeste 12 Noroeste 0 -- -- 55
2017-08-18 07:00:00 21 8 Noroeste 10 Noroeste 0 -- -- 55
2017-08-18 06:00:00 21 8 Noroeste 9 Noroeste 0 -- -- 59
2017-08-18 05:00:00 21.9 8 Noroeste 10 Noroeste 0 -- -- 52
2017-08-18 04:00:00 22.8 6 Noroeste 12 Noroeste 0 -- -- 49
2017-08-18 03:00:00 24.4 8 Noroeste 14 Noroeste 0 -- -- 44
2017-08-18 02:00:00 25.7 8 Norte 13 Noroeste 0 -- -- 40
2017-08-18 01:00:00 26.7 8 Norte 17 Norte 0 -- -- 35
2017-08-18 00:00:00 28.7 10 Noroeste 16 Oeste 0 -- -- 32
2017-08-17 23:00:00 30.1 10 Oeste 17 Oeste 0 -- -- 24
2017-08-17 22:00:00 32.2 4 Sudoeste 9 Sudeste 0 -- -- 22
2017-08-17 21:00:00 35.2 3 Norte 15 Norte 0 -- -- 18
2017-08-17 20:00:00 37.1 9 Noroeste 16 Noroeste 0 -- -- 15
2017-08-17 19:00:00 37.5 6 Norte 23 Noroeste 0 -- -- 15
2017-08-17 18:00:00 37.5 7 Este 21 Norte 0 -- -- 16
2017-08-17 17:00:00 37.3 9 Norte 19 Noroeste 0 -- -- 16
2017-08-17 16:00:00 36.6 8 Norte 21 Sudoeste 0 -- -- 18
2017-08-17 15:00:00 35.8 8 Noroeste 15 Noroeste 0 -- -- 18
2017-08-17 14:00:00 33.8 7 Norte 17 Oeste 0 -- -- 21
2017-08-17 13:00:00 32.3 5 Norte 13 Norte 0 -- -- 23
2017-08-17 12:00:00 29.4 4 Noroeste 12 Noroeste 0 -- -- 28
2017-08-17 11:00:00 26.3 7 Noroeste 13 Noroeste 0 -- -- 38
2017-08-17 10:00:00 23 8 Noroeste 13 Noroeste 0 -- -- 46
2017-08-17 09:00:00 21 5 Noroeste 7 Oeste 0 -- -- 52
2017-08-17 08:00:00 18.7 6 Noroeste 7 Noroeste 0 -- -- 58
2017-08-17 07:00:00 19.1 7 Norte 9 Norte 0 -- -- 59
2017-08-17 06:00:00 19.7 6 Noroeste 9 Noroeste 0 -- -- 55
2017-08-17 05:00:00 20.7 8 Noroeste 10 Noroeste 0 -- -- 51
2017-08-17 04:00:00 21.3 6 Norte 10 Noroeste 0 -- -- 48
2017-08-17 03:00:00 22.8 9 Norte 12 Norte 0 -- -- 42
2017-08-17 02:00:00 23.5 10 Norte 13 Norte 0 -- -- 37
2017-08-17 01:00:00 24.5 8 Norte 17 Norte 0 -- -- 32
2017-08-17 00:00:00 25.5 9 Noroeste 14 Noroeste 0 -- -- 22
2017-08-16 23:00:00 28.4 7 Oeste 10 Oeste 0 -- -- 17
2017-08-16 22:00:00 29.9 4 Oeste 8 Noroeste 0 -- -- 16
2017-08-16 21:00:00 32.6 6 Norte 16 Noroeste 0 -- -- 15
2017-08-16 20:00:00 34.3 10 Noroeste 22 Norte 0 -- -- 13
2017-08-16 19:00:00 34.9 11 Norte 22 Norte 0 -- -- 13
2017-08-16 18:00:00 34.8 13 Noroeste 30 Norte 0 -- -- 13
2017-08-16 17:00:00 34.4 13 Noroeste 27 Noroeste 0 -- -- 13
2017-08-16 16:00:00 34.1 15 Noroeste 30 Noroeste 0 -- -- 11
2017-08-16 15:00:00 32.7 15 Noroeste 26 Noroeste 0 -- -- 16
2017-08-16 14:00:00 31.4 10 Noroeste 22 Noroeste 0 -- -- 20
2017-08-16 13:00:00 29.3 9 Noroeste 17 Noroeste 0 -- -- 26
2017-08-16 12:00:00 26.7 8 Noroeste 14 Noroeste 0 -- -- 32
2017-08-16 11:00:00 23.7 7 Noroeste 16 Noroeste 0 -- -- 38
2017-08-16 10:00:00 21 11 Noroeste 19 Noroeste 0 -- -- 44
2017-08-16 09:00:00 19.1 5 Noroeste 9 Oeste 0 -- -- 54
2017-08-16 08:00:00 16.3 6 Noroeste 9 Noroeste 0 -- -- 66
2017-08-16 07:00:00 17 6 Norte 11 Norte 0 -- -- 61
2017-08-16 06:00:00 17 8 Norte 12 Norte 0 -- -- 62
2017-08-16 05:00:00 17.9 6 Norte 9 Norte 0 -- -- 54
2017-08-16 04:00:00 18.9 4 Norte 10 Norte 0 -- -- 50
2017-08-16 03:00:00 19.9 6 Norte 9 Norte 0 -- -- 48
2017-08-16 02:00:00 21 8 Norte 10 Norte 0 -- -- 40
2017-08-16 01:00:00 23.4 9 Noroeste 13 Noroeste 0 -- -- 34
2017-08-16 00:00:00 24.8 9 Noroeste 17 Noroeste 0 -- -- 27
2017-08-15 23:00:00 26 8 Noroeste 16 Oeste 0 -- -- 20
2017-08-15 22:00:00 28.1 9 Noroeste 23 Oeste 0 -- -- 20
2017-08-15 21:00:00 31 13 Oeste 32 Oeste 0 -- -- 16
2017-08-15 20:00:00 33.6 19 Noroeste 33 Oeste 0 -- -- 15
2017-08-15 19:00:00 34.9 18 Oeste 33 Oeste 0 -- -- 16
2017-08-15 18:00:00 35.3 15 Noroeste 39 Oeste 0 -- -- 16
2017-08-15 17:00:00 35.1 13 Oeste 26 Oeste 0 -- -- 17
2017-08-15 16:00:00 33.7 14 Oeste 27 Oeste 0 -- -- 18
2017-08-15 15:00:00 32.7 14 Oeste 25 Oeste 0 -- -- 22
2017-08-15 14:00:00 32.4 11 Noroeste 22 Oeste 0 -- -- 23
2017-08-15 13:00:00 30.8 9 Noroeste 20 Noroeste 0 -- -- 23
2017-08-15 12:00:00 29.3 4 Oeste 12 Oeste 0 -- -- 28
2017-08-15 11:00:00 26.1 4 Noroeste 13 Oeste 0 -- -- 36
2017-08-15 10:00:00 22.9 6 Oeste 19 Sudoeste 0 -- -- 47
2017-08-15 09:00:00 20.6 14 Sudoeste 20 Sudoeste 0 -- -- 56
2017-08-15 08:00:00 18.8 6 Sudoeste 9 Sur 0 -- -- 58
2017-08-15 07:00:00 19.6 5 Sur 12 Oeste 0 -- -- 52
2017-08-15 06:00:00 20.7 9 Oeste 12 Sudoeste 0 -- -- 51
2017-08-15 05:00:00 21.4 6 Oeste 8 Oeste 0 -- -- 43
2017-08-15 04:00:00 22.1 3 Norte 8 Norte 0 -- -- 42
2017-08-15 03:00:00 22.7 5 Norte 8 Norte 0 -- -- 43
2017-08-15 02:00:00 24.3 6 Norte 12 Norte 0 -- -- 37
2017-08-15 01:00:00 25.6 8 Nordeste 10 Nordeste 0 -- -- 28
2017-08-15 00:00:00 27 7 Norte 14 Norte 0 -- -- 28
2017-08-14 23:00:00 28.7 11 Noroeste 17 Norte 0 -- -- 25
2017-08-14 22:00:00 30.7 6 Noroeste 12 Oeste 0 -- -- 23
2017-08-14 21:00:00 33.3 8 Oeste 20 Oeste 0 -- -- 21
2017-08-14 20:00:00 35 12 Oeste 24 Oeste 0 -- -- 20
2017-08-14 19:00:00 36.1 9 Oeste 23 Noroeste 0 -- -- 19
2017-08-14 18:00:00 36.2 10 Oeste 27 Oeste 0 -- -- 19
2017-08-14 17:00:00 36.8 12 Sur 24 Sudoeste 0 -- -- 18
2017-08-14 16:00:00 35.6 5 Noroeste 21 Sur 0 -- -- 19
2017-08-14 15:00:00 36 14 Sur 35 Sudoeste 0 -- -- 18
2017-08-14 14:00:00 34.3 11 Sudoeste 22 Sur 0 -- -- 21
2017-08-14 13:00:00 33.2 13 Sur 24 Sur 0 -- -- 21
2017-08-14 12:00:00 30.3 8 Sudoeste 18 Oeste 0 -- -- 23
2017-08-14 11:00:00 28.1 5 Sur 12 Sur 0 -- -- 29
2017-08-14 10:00:00 25.2 9 Sur 12 Sur 0 -- -- 34
2017-08-14 09:00:00 22.5 8 Sur 17 Sudoeste 0 -- -- 39
2017-08-14 08:00:00 20.1 8 Sur 13 Sur 0 -- -- 44
2017-08-14 07:00:00 21.1 3 Sur 8 Sur 0 -- -- 39
2017-08-14 06:00:00 22.3 9 Sur 16 Sudeste 0 -- -- 34
2017-08-14 05:00:00 23.5 5 Nordeste 8 Sudeste 0 -- -- 33
2017-08-14 04:00:00 24 -- -- -- -- 0 -- -- 30
2017-08-14 03:00:00 23.8 6 Norte 13 Norte 0 -- -- 30
2017-08-14 02:00:00 25.1 8 Nordeste 25 Noroeste 0 -- -- 27
2017-08-14 01:00:00 28.1 2 Oeste 3 Oeste 0 -- -- 22
2017-08-14 00:00:00 27.8 0 Calma 6 Nordeste 0 -- -- 24
2017-08-13 23:00:00 29.5 5 Sur 9 Sudeste 0 -- -- 21
2017-08-13 22:00:00 30.2 8 Sur 10 Sur 0 -- -- 20
2017-08-13 21:00:00 33.9 4 Sur 8 Este 0 -- -- 15
2017-08-13 20:00:00 36.2 3 Sur 14 Sudeste 0 -- -- 13
2017-08-13 19:00:00 36.4 10 Sur 21 Sudeste 0 -- -- 13
2017-08-13 18:00:00 36.5 14 Sur 27 Sudeste 0 -- -- 13
2017-08-13 17:00:00 36.6 9 Sudeste 25 Sudeste 0 -- -- 13
2017-08-13 16:00:00 36.4 10 Sudeste 27 Sur 0 -- -- 14
2017-08-13 15:00:00 35.7 7 Nordeste 23 Sudoeste 0 -- -- 16
2017-08-13 14:00:00 34.9 10 Sur 23 Sudeste 0 -- -- 17
2017-08-13 13:00:00 33.2 10 Sudeste 20 Sur 0 -- -- 18
2017-08-13 12:00:00 31.6 11 Sudeste 18 Sur 0 -- -- 19
2017-08-13 11:00:00 29.5 6 Sur 13 Sur 0 -- -- 21
2017-08-13 10:00:00 26.6 10 Sur 19 Sur 0 -- -- 23
2017-08-13 09:00:00 24 15 Sur 24 Sur 0 -- -- 27
2017-08-13 08:00:00 21.9 16 Sur 23 Sur 0 -- -- 25
2017-08-13 07:00:00 22.6 7 Sur 12 Sur 0 -- -- 22
2017-08-13 06:00:00 22 5 Noroeste 8 Nordeste 0 -- -- 23
2017-08-13 05:00:00 23.6 6 Nordeste 10 Nordeste 0 -- -- 21
2017-08-13 04:00:00 24.4 3 Noroeste 11 Sur 0 -- -- 22
2017-08-13 03:00:00 24.3 4 Sur 10 Sur 0 -- -- 19
2017-08-13 02:00:00 25.5 2 Norte 11 Este 0 -- -- 18
2017-08-13 01:00:00 25.8 8 Nordeste 12 Nordeste 0 -- -- 17
2017-08-13 00:00:00 27 6 Nordeste 12 Este 0 -- -- 16
2017-08-12 23:00:00 27.6 9 Este 12 Este 0 -- -- 16
2017-08-12 22:00:00 29.1 9 Este 11 Este 0 -- -- 15
2017-08-12 21:00:00 32.5 9 Sudeste 15 Nordeste 0 -- -- 13
2017-08-12 20:00:00 35.2 5 Sudoeste 15 Este 0 -- -- 10
2017-08-12 19:00:00 35.3 8 Noroeste 24 Este 0 -- -- 10
2017-08-12 18:00:00 35.3 10 Sudeste 26 Sur 0 -- -- 10
2017-08-12 17:00:00 35.7 8 Sudeste 23 Sur 0 -- -- 10
2017-08-12 16:00:00 36 15 Sur 26 Sur 0 -- -- 10
2017-08-12 15:00:00 34.1 8 Sur 23 Sur 0 -- -- 11
2017-08-12 14:00:00 33.8 9 Sur 25 Sudeste 0 -- -- 11
2017-08-12 13:00:00 32.8 14 Sur 29 Sur 0 -- -- 12
2017-08-12 12:00:00 30.9 15 Sur 25 Sur 0 -- -- 14
2017-08-12 11:00:00 29 15 Sudeste 27 Sur 0 -- -- 14
2017-08-12 10:00:00 23.9 6 Norte 8 Noroeste 0 -- -- 23
2017-08-12 09:00:00 19.6 2 Noroeste 6 Noroeste 0 -- -- 29
2017-08-12 08:00:00 17.5 6 Noroeste 9 Noroeste 0 -- -- 30
2017-08-12 07:00:00 21 2 Sudeste 12 Sur 0 -- -- 21
2017-08-12 06:00:00 21.1 4 Sudeste 12 Sudeste 0 -- -- 22
2017-08-12 05:00:00 21.7 5 Sudeste 8 Sur 0 -- -- 22
2017-08-12 04:00:00 20.3 3 Noroeste 8 Noroeste 0 -- -- 24
2017-08-12 03:00:00 20.9 5 Noroeste 8 Norte 0 -- -- 24
2017-08-12 02:00:00 22 5 Noroeste 8 Nordeste 0 -- -- 23
2017-08-12 01:00:00 23.3 8 Nordeste 14 Este 0 -- -- 22
2017-08-12 00:00:00 25.1 10 Nordeste 18 Nordeste 0 -- -- 20
2017-08-11 23:00:00 25.7 8 Nordeste 11 Nordeste 0 -- -- 19
2017-08-11 22:00:00 27.2 7 Norte 12 Norte 0 -- -- 15
2017-08-11 21:00:00 30.6 8 Norte 18 Norte 0 -- -- 12
2017-08-11 20:00:00 32.2 10 Nordeste 20 Norte 0 -- -- 10
2017-08-11 19:00:00 32.8 10 Nordeste 21 Nordeste 0 -- -- 10
2017-08-11 18:00:00 32.9 14 Nordeste 28 Nordeste 0 -- -- 11
2017-08-11 17:00:00 32.5 14 Norte 24 Norte 0 -- -- 12
2017-08-11 16:00:00 32.7 9 Este 25 Este 0 -- -- 14
2017-08-11 15:00:00 31.4 10 Nordeste 24 Nordeste 0 -- -- 15
2017-08-11 14:00:00 31.2 6 Sudeste 33 Sur 0 -- -- 17
2017-08-11 13:00:00 30.7 12 Sur 27 Sudeste 0 -- -- 18
2017-08-11 12:00:00 28.7 14 Sur 28 Sudeste 0 -- -- 20
2017-08-11 11:00:00 26.2 20 Sudeste 33 Sudeste 0 -- -- 22
2017-08-11 10:00:00 24.6 16 Sudeste 32 Sudeste 0 -- -- 24
2017-08-11 09:00:00 18.4 0 Calma 8 Noroeste 0 -- -- 30
2017-08-11 08:00:00 15 6 Norte 10 Norte 0 -- -- 35
2017-08-11 07:00:00 15.4 3 Noroeste 9 Norte 0 -- -- 33
2017-08-11 06:00:00 15.6 6 Noroeste 10 Noroeste 0 -- -- 37
2017-08-11 05:00:00 16.6 4 Noroeste 10 Noroeste 0 -- -- 32
2017-08-11 04:00:00 18.7 5 Noroeste 12 Este 0 -- -- 26
2017-08-11 03:00:00 19.4 4 Este 12 Este 0 -- -- 25
2017-08-11 02:00:00 19.8 5 Noroeste 10 Sur 0 -- -- 23
2017-08-11 01:00:00 23 9 Este 15 Este 0 -- -- 19
2017-08-11 00:00:00 23.3 10 Este 15 Este 0 -- -- 18
2017-08-10 23:00:00 24 12 Nordeste 18 Nordeste 0 -- -- 18
2017-08-10 22:00:00 24.7 12 Nordeste 17 Nordeste 0 -- -- 14
2017-08-10 21:00:00 28.1 12 Nordeste 22 Nordeste 0 -- -- 9
2017-08-10 20:00:00 30.1 12 Nordeste 24 Este 0 -- -- 10
2017-08-10 19:00:00 30.7 14 Nordeste 27 Nordeste 0 -- -- 11
2017-08-10 18:00:00 30.8 7 Nordeste 24 Nordeste 0 -- -- 12
2017-08-10 17:00:00 30.4 9 Norte 26 Norte 0 -- -- 14
2017-08-10 16:00:00 29.4 10 Norte 26 Nordeste 0 -- -- 16
2017-08-10 15:00:00 28.3 6 Noroeste 20 Oeste 0 -- -- 19
2017-08-10 14:00:00 27.2 5 Nordeste 19 Sudeste 0 -- -- 21
2017-08-10 13:00:00 26.3 8 Sur 20 Sur 0 -- -- 23
2017-08-10 12:00:00 24.2 7 Este 12 Este 0 -- -- 25
2017-08-10 11:00:00 21.5 5 Norte 12 Este 0 -- -- 29
2017-08-10 10:00:00 20.3 8 Nordeste 16 Nordeste 0 -- -- 30
2017-08-10 09:00:00 18.3 6 Nordeste 13 Este 0 -- -- 36
2017-08-10 08:00:00 15.8 8 Este 14 Este 0 -- -- 42
2017-08-10 07:00:00 16 4 Nordeste 10 Nordeste 0 -- -- 41
2017-08-10 06:00:00 16.8 6 Nordeste 14 Nordeste 0 -- -- 38
2017-08-10 05:00:00 17.6 5 Nordeste 12 Sudeste 0 -- -- 37
2017-08-10 04:00:00 18.7 8 Sudeste 15 Sudeste 0 -- -- 36
2017-08-10 03:00:00 17.9 7 Nordeste 12 Nordeste 0 -- -- 31
2017-08-10 02:00:00 18.6 2 Noroeste 14 Norte 0 -- -- 29
2017-08-10 01:00:00 20.4 11 Norte 27 Norte 0 -- -- 26
2017-08-10 00:00:00 21.8 16 Norte 37 Norte 0 -- -- 22
2017-08-09 23:00:00 23 19 Norte 33 Norte 0 -- -- 23
2017-08-09 22:00:00 24.3 17 Norte 35 Norte 0 -- -- 22
2017-08-09 21:00:00 26.3 18 Norte 37 Norte 0 -- -- 20
2017-08-09 20:00:00 28.1 20 Norte 37 Norte 0 -- -- 21
2017-08-09 19:00:00 29 22 Norte 38 Norte 0 -- -- 20
2017-08-09 18:00:00 29.7 19 Noroeste 41 Norte 0 -- -- 18
2017-08-09 17:00:00 29.6 14 Norte 31 Norte 0 -- -- 18
2017-08-09 16:00:00 28.7 16 Norte 28 Norte 0 -- -- 17
2017-08-09 15:00:00 28.4 12 Noroeste 30 Norte 0 -- -- 19
2017-08-09 14:00:00 27.4 14 Noroeste 31 Noroeste 0 -- -- 21
2017-08-09 13:00:00 26.1 14 Norte 27 Noroeste 0 -- -- 26
2017-08-09 12:00:00 24.3 12 Norte 24 Norte 0 -- -- 30
2017-08-09 11:00:00 21.8 13 Norte 23 Norte 0 -- -- 37
2017-08-09 10:00:00 18.8 11 Norte 19 Norte 0 -- -- 49
2017-08-09 09:00:00 16.4 11 Norte 19 Noroeste 0 -- -- 61
2017-08-09 08:00:00 14.4 11 Norte 15 Norte 0 -- -- 70
2017-08-09 07:00:00 14.2 6 Norte 13 Noroeste 0 -- -- 71
2017-08-09 06:00:00 14.9 8 Norte 15 Noroeste 0 -- -- 66
2017-08-09 05:00:00 15.7 10 Norte 17 Noroeste 0 -- -- 62
2017-08-09 04:00:00 16.5 10 Noroeste 17 Noroeste 0 -- -- 57
2017-08-09 03:00:00 18 8 Norte 22 Norte 0 -- -- 53
2017-08-09 02:00:00 19.4 12 Noroeste 24 Norte 0 -- -- 47
2017-08-09 01:00:00 21.1 15 Norte 32 Norte 0 -- -- 42
2017-08-09 00:00:00 21.1 8 Noroeste 14 Noroeste 0 -- -- 26
2017-08-08 23:00:00 22.8 8 Noroeste 13 Norte 0 -- -- 29
2017-08-08 22:00:00 25.3 6 Noroeste 17 Noroeste 0 -- -- 21
2017-08-08 21:00:00 28.5 9 Noroeste 23 Norte 0 -- -- 18
2017-08-08 20:00:00 29.7 13 Norte 27 Noroeste 0 -- -- 15
2017-08-08 19:00:00 30.1 13 Norte 30 Noroeste 0 -- -- 14
2017-08-08 18:00:00 30.3 15 Norte 29 Norte 0 -- -- 11
2017-08-08 17:00:00 30 14 Norte 36 Noroeste 0 -- -- 12
2017-08-08 16:00:00 29 12 Norte 31 Noroeste 0 -- -- 15
2017-08-08 15:00:00 28.3 15 Noroeste 32 Noroeste 0 -- -- 16
2017-08-08 14:00:00 27.1 14 Norte 27 Noroeste 0 -- -- 20
2017-08-08 13:00:00 25 15 Noroeste 27 Noroeste 0 -- -- 28
2017-08-08 12:00:00 23.1 17 Norte 27 Noroeste 0 -- -- 38
2017-08-08 11:00:00 21.2 13 Norte 28 Norte 0 -- -- 49
2017-08-08 10:00:00 18.4 15 Norte 24 Norte 0 -- -- 60
2017-08-08 09:00:00 15.7 12 Noroeste 21 Noroeste 0 -- -- 75
2017-08-08 08:00:00 13.5 10 Noroeste 17 Noroeste 0 -- -- 81
2017-08-08 07:00:00 13.5 10 Noroeste 18 Noroeste 0 -- -- 79
2017-08-08 06:00:00 14.2 10 Noroeste 15 Norte 0 -- -- 76
2017-08-08 05:00:00 15.1 9 Noroeste 21 Noroeste 0 -- -- 70
2017-08-08 04:00:00 15.9 11 Norte 24 Norte 0 -- -- 61
2017-08-08 03:00:00 17.1 13 Norte 27 Norte 0 -- -- 53
2017-08-08 02:00:00 18.7 16 Norte 26 Norte 0 -- -- 44
2017-08-08 01:00:00 20.8 18 Norte 31 Norte 0 -- -- 35
2017-08-08 00:00:00 22.6 15 Noroeste 28 Noroeste 0 -- -- 32
2017-08-07 23:00:00 25.1 16 Noroeste 27 Noroeste 0 -- -- 22
2017-08-07 22:00:00 26.9 13 Noroeste 30 Oeste 0 -- -- 19
2017-08-07 21:00:00 28.9 15 Noroeste 32 Oeste 0 -- -- 17
2017-08-07 20:00:00 31.1 21 Noroeste 36 Oeste 0 -- -- 12
2017-08-07 19:00:00 33.4 21 Oeste 39 Oeste 0 -- -- 10
2017-08-07 18:00:00 34.5 24 Oeste 37 Oeste 0 -- -- 9
2017-08-07 17:00:00 34.2 21 Oeste 38 Oeste 0 -- -- 11
2017-08-07 16:00:00 33.7 17 Oeste 33 Oeste 0 -- -- 14
2017-08-07 15:00:00 32.6 17 Sudoeste 28 Sudoeste 0 -- -- 17
2017-08-07 14:00:00 32.7 9 Oeste 21 Oeste 0 -- -- 12
2017-08-07 13:00:00 30.6 9 Oeste 20 Oeste 0 -- -- 13
2017-08-07 12:00:00 28.7 7 Sudoeste 15 Sudoeste 0 -- -- 21
2017-08-07 11:00:00 27.4 4 Oeste 11 Norte 0 -- -- 16
2017-08-07 10:00:00 24.7 10 Noroeste 18 Noroeste 0 -- -- 26
2017-08-07 09:00:00 21.4 6 Oeste 24 Sudoeste 0 -- -- 38
2017-08-07 08:00:00 19 18 Sudoeste 33 Sudoeste 0 -- -- 55
2017-08-07 07:00:00 19.8 11 Sudoeste 17 Sudoeste 0 -- -- 50
2017-08-07 06:00:00 19.8 9 Sudoeste 20 Sudoeste 0 -- -- 56
2017-08-07 05:00:00 20.7 13 Sudoeste 23 Sudoeste 0 -- -- 52
2017-08-07 04:00:00 22.6 12 Sudoeste 18 Sudoeste 0 -- -- 42
2017-08-07 03:00:00 23.3 4 Noroeste 9 Norte 0 -- -- 38
2017-08-07 02:00:00 24 7 Norte 11 Noroeste 0 -- -- 33
2017-08-07 01:00:00 26.3 9 Noroeste 13 Noroeste 0 -- -- 25
2017-08-07 00:00:00 27.5 5 Norte 13 Noroeste 0 -- -- 23
2017-08-06 23:00:00 29.3 8 Noroeste 15 Oeste 0 -- -- 21
2017-08-06 22:00:00 31 11 Oeste 19 Oeste 0 -- -- 20
2017-08-06 21:00:00 33.4 14 Oeste 26 Oeste 0 -- -- 19
2017-08-06 20:00:00 35.1 14 Oeste 29 Oeste 0 -- -- 14
2017-08-06 19:00:00 35.5 13 Oeste 27 Oeste 0 -- -- 14
2017-08-06 18:00:00 35.7 14 Oeste 26 Oeste 0 -- -- 15
2017-08-06 17:00:00 36 12 Sudoeste 28 Noroeste 0 -- -- 16
2017-08-06 16:00:00 35.4 8 Oeste 21 Noroeste 0 -- -- 19
2017-08-06 15:00:00 34.3 9 Sur 20 Noroeste 0 -- -- 24
2017-08-06 14:00:00 32.4 8 Norte 17 Noroeste 0 -- -- 27
2017-08-06 13:00:00 31 8 Norte 17 Noroeste 0 -- -- 30
2017-08-06 12:00:00 28.3 5 Noroeste 12 Oeste 0 -- -- 37
2017-08-06 11:00:00 25.3 4 Norte 11 Oeste 0 -- -- 43
2017-08-06 10:00:00 23.4 5 Noroeste 11 Norte 0 -- -- 48
2017-08-06 09:00:00 20.6 3 Noroeste 17 Sudoeste 0 -- -- 60
2017-08-06 08:00:00 17.2 11 Sudoeste 22 Sudoeste 0 -- -- 73
2017-08-06 07:00:00 19 3 Oeste 6 Norte 0 -- -- 57
2017-08-06 06:00:00 19.1 4 Norte 9 Norte 0 -- -- 56
2017-08-06 05:00:00 19.2 6 Nordeste 8 Noroeste 0 -- -- 56
2017-08-06 04:00:00 19.8 6 Noroeste 11 Oeste 0 -- -- 57
2017-08-06 03:00:00 21.3 8 Noroeste 11 Noroeste 0 -- -- 49
2017-08-06 02:00:00 23.1 3 Noroeste 14 Noroeste 0 -- -- 43
2017-08-06 01:00:00 25 10 Noroeste 16 Noroeste 0 -- -- 36
2017-08-06 00:00:00 26.8 10 Noroeste 22 Noroeste 0 -- -- 31
2017-08-05 23:00:00 28.8 9 Oeste 27 Oeste 0 -- -- 26
2017-08-05 22:00:00 31.6 15 Oeste 30 Oeste 0 -- -- 20
2017-08-05 21:00:00 34.8 17 Oeste 30 Oeste 0 -- -- 16
2017-08-05 20:00:00 36.6 19 Oeste 36 Oeste 0 -- -- 17
2017-08-05 19:00:00 37.7 17 Oeste 36 Oeste 0 -- -- 15
2017-08-05 18:00:00 37.9 21 Oeste 35 Oeste 0 -- -- 15
2017-08-05 17:00:00 38.6 16 Noroeste 38 Oeste 0 -- -- 15
2017-08-05 16:00:00 38.2 13 Oeste 34 Oeste 0 -- -- 16
2017-08-05 15:00:00 38 16 Oeste 32 Oeste 0 -- -- 15
2017-08-05 14:00:00 36.6 9 Norte 23 Noroeste 0 -- -- 18
2017-08-05 13:00:00 34.8 13 Noroeste 21 Noroeste 0 -- -- 19
2017-08-05 12:00:00 32.4 11 Noroeste 19 Noroeste 0 -- -- 26
2017-08-05 11:00:00 29.5 10 Noroeste 18 Oeste 0 -- -- 34
2017-08-05 10:00:00 26.1 8 Noroeste 15 Noroeste 0 -- -- 43
2017-08-05 09:00:00 23.2 7 Noroeste 16 Noroeste 0 -- -- 48
2017-08-05 08:00:00 21.8 10 Noroeste 13 Noroeste 0 -- -- 50
2017-08-05 07:00:00 21.6 9 Noroeste 12 Noroeste 0 -- -- 50
2017-08-05 06:00:00 22.2 7 Noroeste 10 Norte 0 -- -- 48
2017-08-05 05:00:00 22.6 5 Noroeste 12 Noroeste 0 -- -- 45
2017-08-05 04:00:00 24 8 Noroeste 13 Norte 0 -- -- 40
2017-08-05 03:00:00 25.8 10 Norte 14 Noroeste 0 -- -- 38
2017-08-05 02:00:00 27.3 8 Norte 19 Noroeste 0 -- -- 31
2017-08-05 01:00:00 29.2 11 Norte 26 Norte 0 -- -- 28
2017-08-05 00:00:00 30.3 12 Noroeste 19 Noroeste 0 -- -- 30
2017-08-04 23:00:00 31.9 10 Norte 18 Norte 0 -- -- 24
2017-08-04 22:00:00 33.9 8 Norte 15 Norte 0 -- -- 20
2017-08-04 21:00:00 37.5 9 Norte 22 Noroeste 0 -- -- 18
2017-08-04 20:00:00 39 14 Norte 24 Noroeste 0 -- -- 17
2017-08-04 19:00:00 39.5 16 Noroeste 27 Noroeste 0 -- -- 16
2017-08-04 18:00:00 39.7 15 Noroeste 26 Nordeste 0 -- -- 17
2017-08-04 17:00:00 39.4 9 Norte 27 Noroeste 0 -- -- 18
2017-08-04 16:00:00 38.9 12 Noroeste 27 Norte 0 -- -- 20
2017-08-04 15:00:00 37.6 7 Norte 21 Norte 0 -- -- 22
2017-08-04 14:00:00 36.5 9 Norte 22 Norte 0 -- -- 23
2017-08-04 13:00:00 34.5 9 Norte 24 Noroeste 0 -- -- 28
2017-08-04 12:00:00 32.4 11 Norte 19 Norte 0 -- -- 33
2017-08-04 11:00:00 29.3 10 Norte 17 Norte 0 -- -- 41
2017-08-04 10:00:00 25.5 9 Noroeste 15 Noroeste 0 -- -- 50
2017-08-04 09:00:00 23.1 8 Noroeste 12 Oeste 0 -- -- 59
2017-08-04 08:00:00 21 8 Noroeste 10 Noroeste 0 -- -- 66
2017-08-04 07:00:00 20.5 9 Noroeste 12 Noroeste 0 -- -- 67
2017-08-04 06:00:00 21.8 10 Noroeste 17 Noroeste 0 -- -- 61
2017-08-04 05:00:00 22.4 6 Norte 13 Norte 0 -- -- 60
2017-08-04 04:00:00 23.4 9 Noroeste 17 Noroeste 0 -- -- 57
2017-08-04 03:00:00 24.7 9 Noroeste 21 Noroeste 0 -- -- 53
2017-08-04 02:00:00 26.2 14 Norte 23 Norte 0 -- -- 48
2017-08-04 01:00:00 27.7 13 Norte 25 Norte 0 -- -- 44
2017-08-04 00:00:00 29.3 17 Norte 27 Norte 0 -- -- 39
2017-08-03 23:00:00 30.5 14 Norte 23 Norte 0 -- -- 35
2017-08-03 22:00:00 32 8 Noroeste 19 Noroeste 0 -- -- 28
2017-08-03 21:00:00 34.6 13 Noroeste 27 Noroeste 0 -- -- 23
2017-08-03 20:00:00 35.8 14 Norte 30 Noroeste 0 -- -- 20
2017-08-03 19:00:00 36.6 12 Norte 25 Norte 0 -- -- 18
2017-08-03 18:00:00 36.9 12 Norte 29 Noroeste 0 -- -- 13
2017-08-03 17:00:00 36.7 8 Oeste 26 Noroeste 0 -- -- 12
2017-08-03 16:00:00 35.9 13 Norte 22 Norte 0 -- -- 12
2017-08-03 15:00:00 34.6 13 Norte 23 Norte 0 -- -- 14
2017-08-03 14:00:00 33.2 9 Noroeste 19 Noroeste 0 -- -- 16
2017-08-03 13:00:00 31.8 8 Norte 19 Noroeste 0 -- -- 21
2017-08-03 12:00:00 29.4 6 Noroeste 11 Norte 0 -- -- 24
2017-08-03 11:00:00 26.3 4 Norte 10 Norte 0 -- -- 29
2017-08-03 10:00:00 22.9 5 Norte 14 Noroeste 0 -- -- 35
2017-08-03 09:00:00 21 5 Noroeste 9 Norte 0 -- -- 38
2017-08-03 08:00:00 17.8 7 Noroeste 9 Noroeste 0 -- -- 48
2017-08-03 07:00:00 17.5 7 Norte 9 Norte 0 -- -- 45
2017-08-03 06:00:00 18 7 Norte 9 Norte 0 -- -- 48
2017-08-03 05:00:00 18.8 8 Norte 10 Norte 0 -- -- 47
2017-08-03 04:00:00 19.3 8 Norte 10 Norte 0 -- -- 41
2017-08-03 03:00:00 20.6 7 Noroeste 10 Noroeste 0 -- -- 38
2017-08-03 02:00:00 21.9 8 Noroeste 15 Noroeste 0 -- -- 36
2017-08-03 01:00:00 23.6 10 Norte 18 Norte 0 -- -- 34
2017-08-03 00:00:00 25.5 14 Norte 22 Norte 0 -- -- 26
2017-08-02 23:00:00 27.1 5 Noroeste 10 Noroeste 0 -- -- 19
2017-08-02 22:00:00 29.2 8 Oeste 18 Oeste 0 -- -- 18
2017-08-02 21:00:00 32.3 12 Noroeste 22 Noroeste 0 -- -- 15
2017-08-02 20:00:00 33.6 13 Oeste 27 Oeste 0 -- -- 15
2017-08-02 19:00:00 34 12 Oeste 22 Oeste 0 -- -- 15
2017-08-02 18:00:00 34.4 10 Oeste 27 Oeste 0 -- -- 15
2017-08-02 17:00:00 33.7 9 Sudoeste 28 Noroeste 0 -- -- 16
2017-08-02 16:00:00 33.2 7 Noroeste 25 Noroeste 0 -- -- 18
2017-08-02 15:00:00 32.5 9 Sudoeste 19 Noroeste 0 -- -- 19
2017-08-02 14:00:00 31.4 7 Norte 18 Oeste 0 -- -- 21
2017-08-02 13:00:00 29.8 8 Norte 13 Oeste 0 -- -- 21
2017-08-02 12:00:00 27 6 Noroeste 13 Noroeste 0 -- -- 28
2017-08-02 11:00:00 24.7 5 Oeste 10 Oeste 0 -- -- 34
2017-08-02 10:00:00 21.5 5 Noroeste 9 Noroeste 0 -- -- 41
2017-08-02 09:00:00 19.2 5 Noroeste 7 Noroeste 0 -- -- 46
2017-08-02 08:00:00 16.1 2 Norte 8 Norte 0 -- -- 54
2017-08-02 07:00:00 15.7 6 Nordeste 9 Norte 0 -- -- 55
2017-08-02 06:00:00 15.8 6 Nordeste 10 Noroeste 0 -- -- 54
2017-08-02 05:00:00 16.6 5 Norte 9 Norte 0 -- -- 52
2017-08-02 04:00:00 17.3 6 Norte 10 Norte 0 -- -- 53
2017-08-02 03:00:00 18.8 8 Norte 15 Norte 0 -- -- 47
2017-08-02 02:00:00 19.8 9 Norte 13 Norte 0 -- -- 43
2017-08-02 01:00:00 21.3 8 Norte 19 Norte 0 -- -- 38
2017-08-02 00:00:00 22.6 9 Noroeste 17 Noroeste 0 -- -- 32
2017-08-01 23:00:00 24.5 7 Noroeste 17 Oeste 0 -- -- 26
2017-08-01 22:00:00 26.4 9 Oeste 21 Sudoeste 0 -- -- 24
2017-08-01 21:00:00 28.4 16 Oeste 24 Sudoeste 0 -- -- 20
2017-08-01 20:00:00 30.1 17 Oeste 26 Oeste 0 -- -- 20
2017-08-01 19:00:00 31.3 12 Noroeste 24 Oeste 0 -- -- 18
2017-08-01 18:00:00 31.8 10 Oeste 27 Noroeste 0 -- -- 18
2017-08-01 17:00:00 30.9 13 Oeste 26 Sudoeste 0 -- -- 21
2017-08-01 16:00:00 29.7 11 Oeste 21 Oeste 0 -- -- 22
2017-08-01 15:00:00 28.7 10 Oeste 21 Sudoeste 0 -- -- 22
2017-08-01 14:00:00 27.5 10 Oeste 19 Noroeste 0 -- -- 27
2017-08-01 13:00:00 25.6 8 Noroeste 17 Noroeste 0 -- -- 31
2017-08-01 12:00:00 23.4 6 Noroeste 13 Noroeste 0 -- -- 37
2017-08-01 11:00:00 21.1 7 Norte 13 Noroeste 0 -- -- 43
2017-08-01 10:00:00 18.4 7 Noroeste 13 Noroeste 0 -- -- 49
2017-08-01 09:00:00 16.5 5 Norte 10 Noroeste 0 -- -- 57
2017-08-01 08:00:00 16.1 6 Norte 8 Norte 0 -- -- 64
2017-08-01 07:00:00 16.3 5 Nordeste 8 Nordeste 0 -- -- 65
2017-08-01 06:00:00 16.7 4 Norte 10 Noroeste 0 -- -- 65
2017-08-01 05:00:00 17.2 5 Noroeste 11 Noroeste 0 -- -- 61
2017-08-01 04:00:00 17.5 5 Oeste 11 Oeste 0 -- -- 62
2017-08-01 03:00:00 17.7 7 Oeste 10 Oeste 0 -- -- 56
2017-08-01 02:00:00 18.3 5 Noroeste 8 Noroeste 0 -- -- 56
2017-08-01 01:00:00 19.5 5 Noroeste 15 Norte 0 -- -- 50
2017-08-01 00:00:00 19.8 10 Norte 23 Noroeste 0 -- -- 51
2017-07-31 23:00:00 20.3 13 Noroeste 24 Noroeste 0 -- -- 46
2017-07-31 22:00:00 20.9 18 Norte 37 Norte 0 -- -- 42
2017-07-31 21:00:00 22.4 18 Norte 46 Norte 0 -- -- 40
2017-07-31 20:00:00 25.4 27 Noroeste 42 Norte 0 -- -- 30
2017-07-31 19:00:00 31.3 14 Oeste 27 Sudoeste 0 -- -- 13
2017-07-31 18:00:00 31.1 17 Oeste 27 Oeste 0 -- -- 13
2017-07-31 17:00:00 29.9 12 Oeste 26 Oeste 0 -- -- 17
2017-07-31 16:00:00 31.2 11 Oeste 24 Oeste 0 -- -- 14
2017-07-31 15:00:00 29.7 12 Oeste 24 Oeste 0 -- -- 18
2017-07-31 14:00:00 28.8 12 Oeste 24 Oeste 0 -- -- 22
2017-07-31 13:00:00 27.2 9 Oeste 21 Sur 0 -- -- 27
2017-07-31 12:00:00 25.5 6 Sur 14 Sudoeste 0 -- -- 36
2017-07-31 11:00:00 22.2 4 Nordeste 11 Oeste 0 -- -- 45
2017-07-31 10:00:00 19.5 4 Noroeste 10 Noroeste 0 -- -- 56
2017-07-31 09:00:00 17.4 5 Norte 12 Noroeste 0 -- -- 65
2017-07-31 08:00:00 14.8 5 Sudeste 8 Oeste 0 -- -- 74
2017-07-31 07:00:00 15.3 7 Oeste 16 Oeste 0 -- -- 73
2017-07-31 06:00:00 16.3 9 Oeste 15 Oeste 0 -- -- 67
2017-07-31 05:00:00 17.3 7 Norte 14 Norte 0 -- -- 55
2017-07-31 04:00:00 18.5 10 Norte 15 Norte 0 -- -- 50
2017-07-31 03:00:00 20.1 9 Norte 14 Norte 0 -- -- 43
2017-07-31 02:00:00 21.5 8 Noroeste 16 Noroeste 0 -- -- 37
2017-07-31 01:00:00 23.1 9 Norte 15 Noroeste 0 -- -- 35
2017-07-31 00:00:00 25.4 9 Noroeste 23 Noroeste 0 -- -- 28
2017-07-30 23:00:00 27.7 12 Noroeste 24 Noroeste 0 -- -- 22
2017-07-30 22:00:00 29.7 14 Noroeste 25 Noroeste 0 -- -- 20
2017-07-30 21:00:00 32.7 16 Noroeste 29 Oeste 0 -- -- 18
2017-07-30 20:00:00 34.8 17 Oeste 29 Oeste 0 -- -- 16
2017-07-30 19:00:00 35.7 15 Oeste 27 Oeste 0 -- -- 16
2017-07-30 18:00:00 36.1 15 Oeste 29 Oeste 0 -- -- 14
2017-07-30 17:00:00 36.1 16 Oeste 34 Oeste 0 -- -- 15
2017-07-30 16:00:00 35.7 12 Oeste 27 Oeste 0 -- -- 15
2017-07-30 15:00:00 34.4 12 Oeste 27 Oeste 0 -- -- 19
2017-07-30 14:00:00 33.6 12 Oeste 24 Sudoeste 0 -- -- 20
2017-07-30 13:00:00 31.5 7 Nordeste 16 Noroeste 0 -- -- 24
2017-07-30 12:00:00 28.9 9 Noroeste 14 Noroeste 0 -- -- 30
2017-07-30 11:00:00 26.1 3 Norte 12 Oeste 0 -- -- 40
2017-07-30 10:00:00 23.6 5 Noroeste 16 Noroeste 0 -- -- 52
2017-07-30 09:00:00 21.1 7 Norte 14 Noroeste 0 -- -- 62
2017-07-30 08:00:00 18.4 7 Noroeste 10 Noroeste 0 -- -- 74
2017-07-30 07:00:00 19.1 7 Noroeste 17 Norte 0 -- -- 67
2017-07-30 06:00:00 20.2 7 Noroeste 12 Norte 0 -- -- 61
2017-07-30 05:00:00 21.5 9 Norte 16 Norte 0 -- -- 58
2017-07-30 04:00:00 22 6 Norte 11 Norte 0 -- -- 56
2017-07-30 03:00:00 23.7 8 Norte 15 Norte 0 -- -- 53
2017-07-30 02:00:00 24.9 10 Norte 27 Norte 0 -- -- 51
2017-07-30 01:00:00 26.8 14 Norte 23 Norte 0 -- -- 44
2017-07-30 00:00:00 28.4 12 Noroeste 17 Noroeste 0 -- -- 28
2017-07-29 23:00:00 30 7 Noroeste 12 Oeste 0 -- -- 25
2017-07-29 22:00:00 32.1 6 Oeste 22 Oeste 0 -- -- 20
2017-07-29 21:00:00 35 13 Oeste 25 Oeste 0 -- -- 17
2017-07-29 20:00:00 36.5 17 Oeste 31 Oeste 0 -- -- 19
2017-07-29 19:00:00 37.3 13 Oeste 27 Oeste 0 -- -- 18
2017-07-29 18:00:00 37.6 13 Noroeste 28 Oeste 0 -- -- 18
2017-07-29 17:00:00 37.5 6 Norte 26 Norte 0 -- -- 18
2017-07-29 16:00:00 36.2 17 Noroeste 26 Noroeste 0 -- -- 21
2017-07-29 15:00:00 35.2 8 Norte 26 Norte 0 -- -- 23
2017-07-29 14:00:00 33.7 9 Noroeste 19 Norte 0 -- -- 26
2017-07-29 13:00:00 32 7 Norte 22 Norte 0 -- -- 29
2017-07-29 12:00:00 29.2 8 Noroeste 17 Noroeste 0 -- -- 35
2017-07-29 11:00:00 26.8 9 Noroeste 15 Norte 0 -- -- 41
2017-07-29 10:00:00 24.2 9 Norte 14 Norte 0 -- -- 49
2017-07-29 09:00:00 22.9 6 Norte 13 Norte 0 -- -- 52
2017-07-29 08:00:00 20.5 5 Nordeste 8 Nordeste 0 -- -- 59
2017-07-29 07:00:00 20.4 6 Norte 10 Norte 0 -- -- 58
2017-07-29 06:00:00 20.3 6 Norte 9 Noroeste 0 -- -- 54
2017-07-29 05:00:00 20.9 4 Oeste 6 Noroeste 0 -- -- 49
2017-07-29 04:00:00 21.3 5 Norte 8 Norte 0 -- -- 48
2017-07-29 03:00:00 22.2 8 Norte 13 Norte 0 -- -- 43
2017-07-29 02:00:00 24.3 10 Norte 17 Norte 0 -- -- 35
2017-07-29 01:00:00 25.5 9 Norte 16 Noroeste 0 -- -- 32
2017-07-29 00:00:00 27 9 Noroeste 16 Noroeste 0 -- -- 28
2017-07-28 23:00:00 29.5 12 Noroeste 20 Noroeste 0 -- -- 22
2017-07-28 22:00:00 32.1 12 Oeste 30 Noroeste 0 -- -- 17
2017-07-28 21:00:00 35.2 18 Oeste 32 Oeste 0 -- -- 12
2017-07-28 20:00:00 37 14 Oeste 32 Oeste 0 -- -- 11
2017-07-28 19:00:00 37.7 18 Oeste 36 Noroeste 0 -- -- 12
2017-07-28 18:00:00 38 10 Noroeste 30 Noroeste 0 -- -- 10
2017-07-28 17:00:00 37.6 12 Norte 36 Noroeste 0 -- -- 9
2017-07-28 16:00:00 37.1 13 Noroeste 25 Noroeste 0 -- -- 11
2017-07-28 15:00:00 36.2 7 Nordeste 24 Norte 0 -- -- 14
2017-07-28 14:00:00 34.6 10 Norte 21 Noroeste 0 -- -- 14
2017-07-28 13:00:00 32.9 10 Oeste 19 Noroeste 0 -- -- 22
2017-07-28 12:00:00 30.4 6 Norte 16 Norte 0 -- -- 29
2017-07-28 11:00:00 26.9 9 Noroeste 15 Noroeste 0 -- -- 37
2017-07-28 10:00:00 23.2 8 Noroeste 15 Noroeste 0 -- -- 45
2017-07-28 09:00:00 20.5 7 Noroeste 12 Noroeste 0 -- -- 52
2017-07-28 08:00:00 18.5 7 Noroeste 13 Norte 0 -- -- 59
2017-07-28 07:00:00 19.4 10 Norte 14 Noroeste 0 -- -- 56
2017-07-28 06:00:00 20.4 10 Norte 15 Norte 0 -- -- 53
2017-07-28 05:00:00 20.9 6 Norte 11 Norte 0 -- -- 51
2017-07-28 04:00:00 22.2 6 Norte 17 Norte 0 -- -- 47
2017-07-28 03:00:00 22.5 9 Norte 18 Norte 0 -- -- 47
2017-07-28 02:00:00 24.4 11 Norte 17 Norte 0 -- -- 41
2017-07-28 01:00:00 25.2 5 Norte 12 Noroeste 0 -- -- 33
2017-07-28 00:00:00 27.7 9 Noroeste 17 Noroeste 0 -- -- 28
2017-07-27 23:00:00 29.5 12 Noroeste 19 Noroeste 0 -- -- 21
2017-07-27 22:00:00 31.6 9 Noroeste 19 Noroeste 0 -- -- 16
2017-07-27 21:00:00 34.7 12 Oeste 22 Oeste 0 -- -- 15
2017-07-27 20:00:00 35.7 12 Oeste 24 Noroeste 0 -- -- 14
2017-07-27 19:00:00 36.5 12 Noroeste 27 Oeste 0 -- -- 13
2017-07-27 18:00:00 36.6 13 Noroeste 29 Oeste 0 -- -- 14
2017-07-27 17:00:00 36.7 15 Noroeste 31 Oeste 0 -- -- 15
2017-07-27 16:00:00 36.3 15 Oeste 28 Oeste 0 -- -- 16
2017-07-27 15:00:00 35.6 15 Oeste 26 Oeste 0 -- -- 17
2017-07-27 14:00:00 35 10 Oeste 23 Oeste 0 -- -- 19
2017-07-27 13:00:00 33.9 12 Sudoeste 24 Oeste 0 -- -- 19
2017-07-27 12:00:00 33.1 7 Sudoeste 17 Sur 0 -- -- 23
2017-07-27 11:00:00 29.2 4 Oeste 10 Oeste 0 -- -- 28
2017-07-27 10:00:00 26.3 3 Noroeste 10 Noroeste 0 -- -- 33
2017-07-27 09:00:00 23.8 6 Noroeste 9 Noroeste 0 -- -- 37
2017-07-27 08:00:00 21.7 7 Oeste 9 Noroeste 0 -- -- 42
2017-07-27 07:00:00 20.9 8 Noroeste 10 Noroeste 0 -- -- 45
2017-07-27 06:00:00 21.5 6 Noroeste 10 Noroeste 0 -- -- 44
2017-07-27 05:00:00 22.4 8 Noroeste 12 Noroeste 0 -- -- 46
2017-07-27 04:00:00 23.3 8 Noroeste 12 Noroeste 0 -- -- 42
2017-07-27 03:00:00 24.3 7 Noroeste 13 Noroeste 0 -- -- 39
2017-07-27 02:00:00 25.9 7 Noroeste 11 Noroeste 0 -- -- 31
2017-07-27 01:00:00 26.2 6 Norte 21 Noroeste 0 -- -- 28
2017-07-27 00:00:00 29.7 0 Calma 6 Sur 0 -- -- 21
2017-07-26 23:00:00 29.9 3 Nordeste 8 Nordeste 0 -- -- 22
2017-07-26 22:00:00 31.9 6 Nordeste 13 Norte 0 -- -- 20
2017-07-26 21:00:00 35 9 Norte 18 Norte 0 -- -- 16
2017-07-26 20:00:00 36.2 12 Norte 23 Norte 0 -- -- 15
2017-07-26 19:00:00 36.9 11 Norte 25 Norte 0 -- -- 14
2017-07-26 18:00:00 37 13 Noroeste 26 Norte 0 -- -- 15
2017-07-26 17:00:00 36.9 8 Noroeste 22 Norte 0 -- -- 14
2017-07-26 16:00:00 36 9 Oeste 21 Nordeste 0 -- -- 15
2017-07-26 15:00:00 35.2 8 Este 21 Sudeste 0 -- -- 17
2017-07-26 14:00:00 34.9 8 Sudoeste 19 Sudeste 0 -- -- 17
2017-07-26 13:00:00 33.8 12 Sudeste 27 Sudeste 0 -- -- 19
2017-07-26 12:00:00 32.8 8 Sudeste 27 Sur 0 -- -- 19
2017-07-26 11:00:00 31.3 14 Sur 24 Sur 0 -- -- 21
2017-07-26 10:00:00 26.5 4 Noroeste 6 Norte 0 -- -- 28
2017-07-26 09:00:00 21.4 3 Noroeste 11 Noroeste 0 -- -- 35
2017-07-26 08:00:00 18.9 7 Noroeste 10 Noroeste 0 -- -- 39
2017-07-26 07:00:00 19.7 6 Norte 8 Noroeste 0 -- -- 39
2017-07-26 06:00:00 20.8 4 Norte 9 Noroeste 0 -- -- 37
2017-07-26 05:00:00 21.8 6 Nordeste 8 Norte 0 -- -- 32
2017-07-26 04:00:00 21.7 5 Norte 11 Este 0 -- -- 31
2017-07-26 03:00:00 21.8 4 Norte 10 Noroeste 0 -- -- 31
2017-07-26 02:00:00 22.9 8 Noroeste 9 Noroeste 0 -- -- 34
2017-07-26 01:00:00 24.8 6 Noroeste 11 Noroeste 0 -- -- 26
2017-07-26 00:00:00 27.2 6 Norte 24 Nordeste 0 -- -- 23
2017-07-25 23:00:00 28.8 12 Nordeste 21 Norte 0 -- -- 21
2017-07-25 22:00:00 30.4 13 Norte 20 Norte 0 -- -- 21
2017-07-25 21:00:00 33 12 Norte 24 Noroeste 0 -- -- 18
2017-07-25 20:00:00 34.3 15 Norte 28 Norte 0 -- -- 16
2017-07-25 19:00:00 34.9 16 Norte 32 Noroeste 0 -- -- 14
2017-07-25 18:00:00 35.1 18 Norte 32 Nordeste 0 -- -- 12
2017-07-25 17:00:00 35.2 13 Norte 31 Norte 0 -- -- 16
2017-07-25 16:00:00 34.6 10 Norte 26 Norte 0 -- -- 18
2017-07-25 15:00:00 34 9 Nordeste 22 Nordeste 0 -- -- 19
2017-07-25 14:00:00 32.9 13 Norte 33 Nordeste 0 -- -- 20
2017-07-25 13:00:00 32.8 10 Este 21 Este 0 -- -- 20
2017-07-25 12:00:00 30.9 5 Norte 21 Sudeste 0 -- -- 24
2017-07-25 11:00:00 29.5 9 Sur 22 Sur 0 -- -- 27
2017-07-25 10:00:00 24.4 5 Noroeste 10 Noroeste 0 -- -- 36
2017-07-25 09:00:00 20.5 6 Noroeste 13 Noroeste 0 -- -- 46
2017-07-25 08:00:00 18.1 8 Noroeste 12 Noroeste 0 -- -- 53
2017-07-25 07:00:00 17.7 7 Norte 9 Norte 0 -- -- 57
2017-07-25 06:00:00 19 6 Noroeste 9 Noroeste 0 -- -- 48
2017-07-25 05:00:00 19.8 3 Norte 13 Norte 0 -- -- 44
2017-07-25 04:00:00 20.6 9 Norte 13 Norte 0 -- -- 34
2017-07-25 03:00:00 21.2 8 Norte 11 Norte 0 -- -- 35
2017-07-25 02:00:00 22.9 9 Noroeste 15 Noroeste 0 -- -- 28
2017-07-25 01:00:00 24 9 Noroeste 15 Noroeste 0 -- -- 26
2017-07-25 00:00:00 25.4 9 Noroeste 14 Noroeste 0 -- -- 26
2017-07-24 23:00:00 27.7 8 Noroeste 19 Norte 0 -- -- 25
2017-07-24 22:00:00 29.8 9 Norte 25 Norte 0 -- -- 23
2017-07-24 21:00:00 32.5 15 Norte 30 Norte 0 -- -- 19
2017-07-24 20:00:00 33.7 17 Norte 33 Norte 0 -- -- 19
2017-07-24 19:00:00 34.5 18 Norte 32 Noroeste 0 -- -- 18
2017-07-24 18:00:00 34.5 20 Norte 36 Norte 0 -- -- 19
2017-07-24 17:00:00 34.5 18 Norte 34 Norte 0 -- -- 19
2017-07-24 16:00:00 33.8 15 Norte 32 Norte 0 -- -- 22
2017-07-24 15:00:00 32.1 21 Norte 33 Norte 0 -- -- 26
2017-07-24 14:00:00 30.8 20 Norte 35 Norte 0 -- -- 28
2017-07-24 13:00:00 29.3 15 Norte 36 Noroeste 0 -- -- 32
2017-07-24 12:00:00 27.8 14 Norte 28 Noroeste 0 -- -- 37
2017-07-24 11:00:00 26 16 Norte 26 Norte 0 -- -- 42
2017-07-24 10:00:00 23.7 13 Noroeste 24 Norte 0 -- -- 51
2017-07-24 09:00:00 21 13 Noroeste 22 Noroeste 0 -- -- 63
2017-07-24 08:00:00 19.1 12 Noroeste 18 Noroeste 0 -- -- 72
2017-07-24 07:00:00 18.4 10 Noroeste 17 Noroeste 0 -- -- 75
2017-07-24 06:00:00 19.4 9 Noroeste 16 Noroeste 0 -- -- 71
2017-07-24 05:00:00 20.6 11 Norte 21 Norte 0 -- -- 66
2017-07-24 04:00:00 21.7 13 Norte 22 Norte 0 -- -- 59
2017-07-24 03:00:00 22.8 9 Norte 20 Noroeste 0 -- -- 54
2017-07-24 02:00:00 24 15 Norte 24 Noroeste 0 -- -- 49
2017-07-24 01:00:00 25 13 Norte 23 Noroeste 0 -- -- 40
2017-07-24 00:00:00 25.7 10 Norte 21 Noroeste 0 -- -- 28
2017-07-23 23:00:00 27.8 4 Noroeste 12 Noroeste 0 -- -- 23
2017-07-23 22:00:00 29.9 8 Noroeste 17 Norte 0 -- -- 21
2017-07-23 21:00:00 32.9 10 Noroeste 26 Norte 0 -- -- 17
2017-07-23 20:00:00 33.9 14 Norte 30 Noroeste 0 -- -- 17
2017-07-23 19:00:00 34.5 15 Noroeste 32 Noroeste 0 -- -- 15
2017-07-23 18:00:00 35.2 12 Norte 29 Este 0 -- -- 16
2017-07-23 17:00:00 34.6 12 Noroeste 28 Noroeste 0 -- -- 16
2017-07-23 16:00:00 34 12 Norte 31 Noroeste 0 -- -- 17
2017-07-23 15:00:00 33.1 10 Norte 19 Noroeste 0 -- -- 17
2017-07-23 14:00:00 31.9 10 Noroeste 21 Noroeste 0 -- -- 19
2017-07-23 13:00:00 30.3 10 Oeste 20 Oeste 0 -- -- 26
2017-07-23 12:00:00 27.7 4 Nordeste 15 Noroeste 0 -- -- 34
2017-07-23 11:00:00 24.8 10 Noroeste 17 Norte 0 -- -- 42
2017-07-23 10:00:00 22 6 Noroeste 13 Noroeste 0 -- -- 54
2017-07-23 09:00:00 19.2 10 Noroeste 15 Noroeste 0 -- -- 66
2017-07-23 08:00:00 17 6 Norte 10 Norte 0 -- -- 74
2017-07-23 07:00:00 16.4 7 Noroeste 10 Norte 0 -- -- 75
2017-07-23 06:00:00 17.3 7 Norte 10 Norte 0 -- -- 73
2017-07-23 05:00:00 18.1 7 Norte 14 Norte 0 -- -- 69
2017-07-23 04:00:00 19.3 10 Norte 14 Norte 0 -- -- 63
2017-07-23 03:00:00 20.5 9 Norte 15 Norte 0 -- -- 56
2017-07-23 02:00:00 21.5 9 Norte 14 Noroeste 0 -- -- 47
2017-07-23 01:00:00 22.5 8 Norte 14 Noroeste 0 -- -- 40
2017-07-23 00:00:00 24.7 12 Noroeste 16 Noroeste 0 -- -- 29
2017-07-22 23:00:00 25.5 5 Norte 11 Oeste 0 -- -- 24
2017-07-22 22:00:00 27.6 8 Oeste 21 Oeste 0 -- -- 23
2017-07-22 21:00:00 30.2 12 Oeste 27 Sudoeste 0 -- -- 20
2017-07-22 20:00:00 32 9 Oeste 25 Oeste 0 -- -- 18
2017-07-22 19:00:00 32.6 8 Oeste 27 Oeste 0 -- -- 17
2017-07-22 18:00:00 32.6 12 Oeste 23 Oeste 0 -- -- 19
2017-07-22 17:00:00 31.7 10 Noroeste 25 Noroeste 0 -- -- 21
2017-07-22 16:00:00 31.8 10 Sudoeste 26 Oeste 0 -- -- 23
2017-07-22 15:00:00 29.9 8 Noroeste 21 Noroeste 0 -- -- 25
2017-07-22 14:00:00 29.1 7 Noroeste 18 Norte 0 -- -- 25
2017-07-22 13:00:00 27.7 6 Noroeste 14 Noroeste 0 -- -- 29
2017-07-22 12:00:00 26.1 5 Oeste 13 Sudoeste 0 -- -- 35
2017-07-22 11:00:00 23.2 4 Sudoeste 10 Noroeste 0 -- -- 41
2017-07-22 10:00:00 20.4 8 Noroeste 13 Oeste 0 -- -- 48
2017-07-22 09:00:00 17.8 7 Norte 11 Noroeste 0 -- -- 60
2017-07-22 08:00:00 15.4 4 Oeste 8 Norte 0 -- -- 69
2017-07-22 07:00:00 15.5 6 Norte 10 Norte 0 -- -- 69
2017-07-22 06:00:00 15.8 8 Norte 10 Norte 0 -- -- 69
2017-07-22 05:00:00 16.9 8 Norte 13 Norte 0 -- -- 61
2017-07-22 04:00:00 17.7 8 Norte 15 Noroeste 0 -- -- 58
2017-07-22 03:00:00 18.7 10 Norte 15 Norte 0 -- -- 53
2017-07-22 02:00:00 19.5 8 Norte 14 Noroeste 0 -- -- 46
2017-07-22 01:00:00 20.9 10 Noroeste 17 Noroeste 0 -- -- 39
2017-07-22 00:00:00 22 10 Noroeste 19 Oeste 0 -- -- 37